Time;durP1;ratioP1;P1;durP2;ratioP2;P2;SDS_P1;SDS_P2;PMS_P1;PMS_P2;Temp;Humidity;BMP_temperature;BMP_pressure;BME280_temperature;BME280_humidity;BME280_pressure;Samples;Min_cycle;Max_cycle;Signal;HPM_P1;HPM_P2
2023/05/22 00:00:51;;;;;;;20.75;13.60;;;;;;;;;;5008538;28;20175;-75
2023/05/22 00:03:16;;;;;;;20.70;13.00;;;;;;;;;;5009499;28;20233;-75
2023/05/22 00:05:42;;;;;;;18.27;12.55;;;;;;;;;;5016492;28;20219;-75
2023/05/22 00:08:10;;;;;;;27.05;13.30;;;;;;;;;;5010231;28;20402;-75
2023/05/22 00:10:39;;;;;;;19.33;13.65;;;;;;;;;;5006144;28;20282;-75
2023/05/22 00:13:04;;;;;;;22.20;13.98;;;;;;;;;;5002803;28;20227;-75
2023/05/22 00:15:29;;;;;;;20.17;13.10;;;;;;;;;;4996494;28;20207;-75
2023/05/22 00:17:55;;;;;;;24.08;14.07;;;;;;;;;;5007460;28;20187;-75
2023/05/22 00:20:20;;;;;;;20.95;13.60;;;;;;;;;;5007208;22;20273;-70
2023/05/22 00:22:47;;;;;;;24.23;15.30;;;;;;;;;;4985699;28;20211;-70
2023/05/22 00:25:13;;;;;;;20.35;14.20;;;;;;;;;;4992997;28;20233;-69
2023/05/22 00:27:39;;;;;;;21.73;14.70;;;;;;;;;;4988409;28;20661;-69
2023/05/22 00:30:06;;;;;;;23.67;14.40;;;;;;;;;;4985008;28;20196;-69
2023/05/22 00:32:31;;;;;;;23.42;15.70;;;;;;;;;;4985347;28;20278;-69
2023/05/22 00:34:56;;;;;;;22.15;14.95;;;;;;;;;;4985341;28;20688;-69
2023/05/22 00:37:22;;;;;;;28.17;17.38;;;;;;;;;;4985659;28;20237;-69
2023/05/22 00:39:47;;;;;;;23.33;15.43;;;;;;;;;;4982271;28;20222;-68
2023/05/22 00:42:12;;;;;;;28.77;16.50;;;;;;;;;;4985745;28;20870;-68
2023/05/22 00:44:38;;;;;;;29.58;16.98;;;;;;;;;;4989235;28;20664;-69
2023/05/22 00:47:03;;;;;;;27.77;17.15;;;;;;;;;;4990591;28;20650;-68
2023/05/22 00:49:28;;;;;;;26.27;16.48;;;;;;;;;;4990668;28;20370;-69
2023/05/22 00:51:53;;;;;;;28.05;16.95;;;;;;;;;;4992953;28;20653;-69
2023/05/22 00:54:19;;;;;;;30.20;16.90;;;;;;;;;;4989271;28;20192;-68
2023/05/22 00:56:44;;;;;;;26.42;15.93;;;;;;;;;;4988093;28;20187;-68
2023/05/22 00:59:09;;;;;;;29.52;17.25;;;;;;;;;;4989023;28;20215;-70
2023/05/22 01:01:37;;;;;;;30.48;17.42;;;;;;;;;;4993189;28;20180;-71
2023/05/22 01:04:06;;;;;;;26.33;16.10;;;;;;;;;;4989513;28;20590;-69
2023/05/22 01:06:32;;;;;;;22.77;16.80;;;;;;;;;;4984437;28;20176;-69
2023/05/22 01:08:57;;;;;;;23.88;16.30;;;;;;;;;;4993045;28;20178;-69
2023/05/22 01:11:33;;;;;;;20.80;16.42;;;;;;;;;;4992597;28;20176;-69
2023/05/22 01:13:58;;;;;;;22.55;15.25;;;;;;;;;;4987788;28;20478;-68
2023/05/22 01:16:28;;;;;;;22.98;17.10;;;;;;;;;;4989815;28;20195;-69
2023/05/22 01:18:54;;;;;;;28.23;16.40;;;;;;;;;;4991532;28;20196;-69
2023/05/22 01:21:45;;;;;;;22.88;16.02;;;;;;;;;;4986836;28;20202;-69
2023/05/22 01:24:29;;;;;;;21.02;16.42;;;;;;;;;;4985330;28;20184;-68
2023/05/22 01:27:10;;;;;;;28.27;17.00;;;;;;;;;;4984349;28;20175;-68
2023/05/22 01:29:41;;;;;;;24.33;16.30;;;;;;;;;;4984608;28;20249;-69
2023/05/22 01:32:08;;;;;;;23.85;16.80;;;;;;;;;;4984388;28;20273;-69
2023/05/22 01:34:35;;;;;;;28.33;17.60;;;;;;;;;;4984181;28;20179;-69
2023/05/22 01:37:00;;;;;;;25.90;16.55;;;;;;;;;;4984799;28;20180;-70
2023/05/22 01:39:26;;;;;;;27.20;17.88;;;;;;;;;;4985331;28;20204;-69
2023/05/22 01:41:51;;;;;;;24.50;18.15;;;;;;;;;;4984626;28;20638;-68
2023/05/22 01:44:17;;;;;;;28.25;18.52;;;;;;;;;;4984821;28;20180;-69
2023/05/22 01:46:42;;;;;;;27.48;17.77;;;;;;;;;;4983086;28;21393;-68
2023/05/22 01:49:08;;;;;;;25.77;16.58;;;;;;;;;;4989512;28;20266;-69
2023/05/22 01:51:36;;;;;;;27.85;18.75;;;;;;;;;;4988172;28;20179;-68
2023/05/22 01:54:09;;;;;;;26.35;17.15;;;;;;;;;;4987817;28;20176;-68
2023/05/22 01:56:55;;;;;;;25.92;16.65;;;;;;;;;;4989924;28;20219;-68
2023/05/22 01:59:31;;;;;;;23.10;17.45;;;;;;;;;;4986040;28;20199;-68
2023/05/22 02:01:59;;;;;;;26.65;17.95;;;;;;;;;;4986482;28;20227;-69
2023/05/22 02:04:25;;;;;;;26.92;17.58;;;;;;;;;;4990079;28;20172;-68
2023/05/22 02:06:52;;;;;;;26.15;18.10;;;;;;;;;;4988227;28;20172;-68
2023/05/22 02:09:18;;;;;;;26.42;18.17;;;;;;;;;;4989909;28;20198;-69
2023/05/22 02:11:44;;;;;;;26.48;16.52;;;;;;;;;;4990395;28;20580;-69
2023/05/22 02:14:10;;;;;;;25.05;17.02;;;;;;;;;;4985671;28;20182;-69
2023/05/22 02:16:36;;;;;;;28.85;18.25;;;;;;;;;;4990240;28;20234;-69
2023/05/22 02:19:05;;;;;;;25.85;18.52;;;;;;;;;;4989073;28;20179;-68
2023/05/22 02:21:31;;;;;;;29.35;18.27;;;;;;;;;;4992160;28;20188;-68
2023/05/22 02:23:57;;;;;;;25.50;18.02;;;;;;;;;;4987641;28;20211;-69
2023/05/22 02:26:22;;;;;;;26.35;17.50;;;;;;;;;;4982449;28;20780;-68
2023/05/22 02:28:47;;;;;;;27.35;18.13;;;;;;;;;;4983261;28;20204;-68
2023/05/22 02:31:12;;;;;;;29.80;19.55;;;;;;;;;;4982421;28;20746;-68
2023/05/22 02:33:37;;;;;;;23.98;16.67;;;;;;;;;;4981488;28;20195;-69
2023/05/22 02:36:03;;;;;;;25.20;18.60;;;;;;;;;;4982913;28;20194;-68
2023/05/22 02:38:28;;;;;;;24.88;17.83;;;;;;;;;;4982128;28;20180;-68
2023/05/22 02:40:53;;;;;;;25.48;18.25;;;;;;;;;;4982156;28;20207;-69
2023/05/22 02:43:18;;;;;;;22.38;17.88;;;;;;;;;;4981811;28;20727;-69
2023/05/22 02:45:43;;;;;;;26.75;17.40;;;;;;;;;;4981390;28;20187;-69
2023/05/22 02:48:09;;;;;;;24.48;18.80;;;;;;;;;;4982141;28;20706;-68
2023/05/22 02:50:34;;;;;;;29.52;18.80;;;;;;;;;;4989660;28;20214;-68
2023/05/22 02:52:59;;;;;;;26.45;18.02;;;;;;;;;;4981991;28;20190;-68
2023/05/22 02:55:24;;;;;;;27.67;17.20;;;;;;;;;;4982201;28;20188;-68
2023/05/22 02:57:49;;;;;;;29.08;17.95;;;;;;;;;;4981176;28;20183;-68
2023/05/22 03:00:15;;;;;;;30.55;18.17;;;;;;;;;;4981031;28;20232;-69
2023/05/22 03:02:41;;;;;;;29.15;17.30;;;;;;;;;;4985541;28;20338;-69
2023/05/22 03:05:06;;;;;;;33.38;19.35;;;;;;;;;;4988358;28;20202;-68
2023/05/22 03:07:33;;;;;;;25.58;18.20;;;;;;;;;;4983634;28;20176;-68
2023/05/22 03:09:58;;;;;;;27.05;17.40;;;;;;;;;;4989863;28;20206;-68
2023/05/22 03:12:24;;;;;;;28.70;19.00;;;;;;;;;;4988789;28;20184;-68
2023/05/22 03:14:49;;;;;;;25.40;18.55;;;;;;;;;;4989642;28;20183;-69
2023/05/22 03:17:14;;;;;;;28.70;19.50;;;;;;;;;;4986852;28;20186;-70
2023/05/22 03:19:40;;;;;;;29.05;20.20;;;;;;;;;;4985395;28;20269;-70
2023/05/22 03:22:05;;;;;;;30.20;18.80;;;;;;;;;;4989389;28;20199;-70
2023/05/22 03:24:31;;;;;;;28.30;20.15;;;;;;;;;;4989617;28;20179;-68
2023/05/22 03:26:58;;;;;;;29.83;20.65;;;;;;;;;;4982937;28;20199;-68
2023/05/22 03:29:23;;;;;;;32.85;20.73;;;;;;;;;;4983908;28;20203;-69
2023/05/22 03:31:48;;;;;;;30.27;19.70;;;;;;;;;;4983675;28;20171;-69
2023/05/22 03:34:13;;;;;;;29.08;19.75;;;;;;;;;;4982738;28;20175;-69
2023/05/22 03:36:40;;;;;;;30.30;21.38;;;;;;;;;;4981648;28;20727;-69
2023/05/22 03:39:05;;;;;;;30.40;21.00;;;;;;;;;;4981486;28;20179;-69
2023/05/22 03:41:30;;;;;;;31.85;20.90;;;;;;;;;;4983358;28;20163;-69
2023/05/22 03:43:56;;;;;;;37.17;21.08;;;;;;;;;;4982229;28;20243;-69
2023/05/22 03:46:21;;;;;;;30.23;20.15;;;;;;;;;;4981568;28;20180;-69
2023/05/22 03:48:47;;;;;;;30.67;21.05;;;;;;;;;;4982751;28;20180;-69
2023/05/22 03:51:12;;;;;;;36.72;23.30;;;;;;;;;;4982654;28;20458;-70
2023/05/22 03:53:37;;;;;;;37.63;23.58;;;;;;;;;;4986016;28;20530;-69
2023/05/22 03:56:02;;;;;;;36.55;22.73;;;;;;;;;;4989740;28;20176;-69
2023/05/22 03:58:27;;;;;;;36.70;22.23;;;;;;;;;;4990286;28;20559;-69
2023/05/22 04:00:54;;;;;;;40.95;23.02;;;;;;;;;;4992917;28;20261;-69
2023/05/22 04:03:19;;;;;;;37.75;21.65;;;;;;;;;;4991317;28;20215;-69
2023/05/22 04:05:45;;;;;;;34.13;22.70;;;;;;;;;;4994099;28;20558;-68
2023/05/22 04:08:10;;;;;;;35.10;22.05;;;;;;;;;;4994150;28;20196;-69
2023/05/22 04:10:37;;;;;;;33.03;21.42;;;;;;;;;;4992267;28;20547;-69
2023/05/22 04:13:02;;;;;;;33.10;21.45;;;;;;;;;;4989282;28;20179;-69
2023/05/22 04:15:27;;;;;;;32.28;21.23;;;;;;;;;;4990898;28;20699;-69
2023/05/22 04:17:53;;;;;;;35.60;21.52;;;;;;;;;;4993105;28;20176;-69
2023/05/22 04:20:20;;;;;;;37.13;21.65;;;;;;;;;;4991831;28;20223;-68
2023/05/22 04:22:47;;;;;;;31.92;20.40;;;;;;;;;;4993229;28;20282;-69
2023/05/22 04:25:13;;;;;;;30.10;19.40;;;;;;;;;;4991937;28;20182;-69
2023/05/22 04:27:38;;;;;;;30.98;19.90;;;;;;;;;;4992516;28;20183;-69
2023/05/22 04:30:05;;;;;;;26.17;17.90;;;;;;;;;;4989320;28;20191;-69
2023/05/22 04:32:30;;;;;;;27.58;17.02;;;;;;;;;;4991800;28;20187;-68
2023/05/22 04:34:57;;;;;;;36.88;19.55;;;;;;;;;;4988427;28;20294;-68
2023/05/22 04:37:23;;;;;;;30.52;18.17;;;;;;;;;;4989428;28;20187;-68
2023/05/22 04:39:52;;;;;;;28.13;18.15;;;;;;;;;;4991616;28;20238;-67
2023/05/22 04:42:17;;;;;;;23.58;14.85;;;;;;;;;;4992611;28;20210;-68
2023/05/22 04:44:42;;;;;;;24.33;16.90;;;;;;;;;;4990925;28;20184;-68
2023/05/22 04:47:13;;;;;;;25.02;15.82;;;;;;;;;;4989101;28;20214;-69
2023/05/22 04:49:38;;;;;;;23.00;14.88;;;;;;;;;;4990760;28;20677;-68
2023/05/22 04:52:04;;;;;;;25.30;14.95;;;;;;;;;;4990775;28;20198;-68
2023/05/22 04:54:30;;;;;;;26.08;15.05;;;;;;;;;;4985352;28;20180;-68
2023/05/22 04:56:55;;;;;;;30.35;16.30;;;;;;;;;;4985417;28;20245;-68
2023/05/22 04:59:22;;;;;;;27.27;14.52;;;;;;;;;;4991114;28;20245;-68
2023/05/22 05:01:49;;;;;;;23.63;15.50;;;;;;;;;;4989394;28;20178;-68
2023/05/22 05:04:15;;;;;;;28.38;14.77;;;;;;;;;;4989779;28;20202;-68
2023/05/22 05:06:40;;;;;;;25.25;14.88;;;;;;;;;;4987940;28;20832;-68
2023/05/22 05:09:06;;;;;;;22.40;12.43;;;;;;;;;;4989972;28;20182;-68
2023/05/22 05:11:31;;;;;;;21.70;14.13;;;;;;;;;;4989289;28;20262;-69
2023/05/22 05:13:56;;;;;;;27.63;15.30;;;;;;;;;;4986705;28;20186;-68
2023/05/22 05:16:22;;;;;;;25.08;14.68;;;;;;;;;;4988950;28;20207;-68
2023/05/22 05:18:47;;;;;;;29.45;15.35;;;;;;;;;;4984514;28;20731;-68
2023/05/22 05:21:12;;;;;;;27.40;16.05;;;;;;;;;;4987345;28;20211;-68
2023/05/22 05:23:37;;;;;;;28.15;15.80;;;;;;;;;;4983918;28;20652;-68
2023/05/22 05:26:02;;;;;;;27.50;16.80;;;;;;;;;;4985826;28;20184;-68
2023/05/22 05:28:28;;;;;;;37.35;18.52;;;;;;;;;;4990936;28;20176;-68
2023/05/22 05:30:53;;;;;;;31.48;18.00;;;;;;;;;;4992270;28;20195;-68
2023/05/22 05:33:18;;;;;;;40.75;20.50;;;;;;;;;;4991834;28;20175;-69
2023/05/22 05:35:44;;;;;;;40.15;21.33;;;;;;;;;;4990628;28;20563;-68
2023/05/22 05:38:09;;;;;;;42.08;20.98;;;;;;;;;;4989538;28;20563;-68
2023/05/22 05:40:34;;;;;;;39.88;22.27;;;;;;;;;;4993161;28;20200;-69
2023/05/22 05:42:59;;;;;;;39.45;20.90;;;;;;;;;;4991500;28;20631;-69
2023/05/22 05:45:25;;;;;;;45.67;22.05;;;;;;;;;;4989572;28;20557;-69
2023/05/22 05:47:50;;;;;;;38.35;20.63;;;;;;;;;;4988359;28;20191;-68
2023/05/22 05:50:16;;;;;;;40.25;21.73;;;;;;;;;;4990144;28;20191;-68
2023/05/22 05:52:41;;;;;;;39.72;20.88;;;;;;;;;;4990467;28;20604;-69
2023/05/22 05:55:06;;;;;;;37.67;20.88;;;;;;;;;;4988920;28;20189;-69
2023/05/22 05:57:31;;;;;;;33.85;20.02;;;;;;;;;;4987979;28;20187;-69
2023/05/22 05:59:56;;;;;;;37.83;20.13;;;;;;;;;;4986088;28;20207;-69
2023/05/22 06:02:22;;;;;;;37.90;20.13;;;;;;;;;;4983135;28;20243;-68
2023/05/22 06:04:47;;;;;;;37.22;21.33;;;;;;;;;;4990545;28;20263;-68
2023/05/22 06:07:13;;;;;;;35.00;20.90;;;;;;;;;;4987492;28;20176;-68
2023/05/22 06:09:38;;;;;;;37.08;21.20;;;;;;;;;;4988813;28;20586;-70
2023/05/22 06:12:03;;;;;;;39.65;21.92;;;;;;;;;;4987665;28;20219;-69
2023/05/22 06:14:29;;;;;;;34.38;20.02;;;;;;;;;;4987278;28;20326;-68
2023/05/22 06:16:55;;;;;;;34.47;20.80;;;;;;;;;;4990196;28;20200;-70
2023/05/22 06:19:20;;;;;;;32.08;20.00;;;;;;;;;;5004357;22;20216;-75
2023/05/22 06:21:45;;;;;;;38.13;20.70;;;;;;;;;;5007755;28;20203;-75
2023/05/22 06:24:10;;;;;;;33.03;20.23;;;;;;;;;;5005981;28;20705;-75
2023/05/22 06:26:36;;;;;;;33.55;21.63;;;;;;;;;;5012234;28;20531;-75
2023/05/22 06:29:01;;;;;;;38.67;21.70;;;;;;;;;;5020782;28;20178;-75
2023/05/22 06:31:27;;;;;;;43.35;21.58;;;;;;;;;;5008253;28;20227;-75
2023/05/22 06:33:52;;;;;;;39.33;21.17;;;;;;;;;;5003645;28;20660;-75
2023/05/22 06:36:17;;;;;;;38.28;20.55;;;;;;;;;;5007779;28;20183;-74
2023/05/22 06:38:44;;;;;;;36.00;21.10;;;;;;;;;;5011179;28;20384;-75
2023/05/22 06:41:10;;;;;;;38.92;20.52;;;;;;;;;;5006292;28;20218;-75
2023/05/22 06:43:35;;;;;;;29.20;18.05;;;;;;;;;;5002446;28;21019;-74
2023/05/22 06:46:00;;;;;;;35.20;18.65;;;;;;;;;;5002952;28;20178;-75
2023/05/22 06:48:25;;;;;;;30.67;18.25;;;;;;;;;;5010691;28;20175;-75
2023/05/22 06:50:51;;;;;;;38.17;20.38;;;;;;;;;;5008804;28;20214;-74
2023/05/22 06:53:16;;;;;;;34.63;19.75;;;;;;;;;;5003013;28;20193;-75
2023/05/22 06:55:41;;;;;;;34.07;19.37;;;;;;;;;;5002528;28;20187;-75
2023/05/22 06:58:07;;;;;;;30.95;17.85;;;;;;;;;;5003010;28;20433;-74
2023/05/22 07:00:32;;;;;;;31.95;18.63;;;;;;;;;;5000275;28;20198;-74
2023/05/22 07:02:57;;;;;;;33.63;19.70;;;;;;;;;;5002356;28;20264;-74
2023/05/22 07:05:22;;;;;;;33.65;19.15;;;;;;;;;;5004148;28;20182;-75
2023/05/22 07:07:47;;;;;;;29.83;17.70;;;;;;;;;;5010839;28;20194;-74
2023/05/22 07:10:13;;;;;;;44.15;19.33;;;;;;;;;;5006143;28;20217;-74
2023/05/22 07:12:38;;;;;;;34.25;19.25;;;;;;;;;;5003902;28;20628;-75
2023/05/22 07:15:04;;;;;;;34.67;17.42;;;;;;;;;;5008289;28;20183;-73
2023/05/22 07:17:30;;;;;;;30.80;18.13;;;;;;;;;;5011081;28;20174;-73
2023/05/22 07:19:55;;;;;;;38.38;18.85;;;;;;;;;;5012507;28;20290;-74
2023/05/22 07:22:21;;;;;;;29.30;18.10;;;;;;;;;;5003604;28;20494;-74
2023/05/22 07:24:46;;;;;;;32.37;19.00;;;;;;;;;;5010264;28;20281;-73
2023/05/22 07:27:11;;;;;;;32.80;18.30;;;;;;;;;;5011654;28;20434;-74
2023/05/22 07:29:37;;;;;;;30.65;16.67;;;;;;;;;;5008501;28;20323;-72
2023/05/22 07:32:02;;;;;;;29.60;16.55;;;;;;;;;;5010852;28;20186;-73
2023/05/22 07:34:31;;;;;;;32.22;17.98;;;;;;;;;;5008164;28;20206;-73
2023/05/22 07:36:57;;;;;;;34.50;18.45;;;;;;;;;;4997645;28;20590;-73
2023/05/22 07:39:22;;;;;;;36.22;18.55;;;;;;;;;;5008992;28;20202;-73
2023/05/22 07:41:49;;;;;;;29.05;17.55;;;;;;;;;;5011884;28;20640;-73
2023/05/22 07:44:14;;;;;;;31.90;17.80;;;;;;;;;;5010445;28;20293;-73
2023/05/22 07:46:40;;;;;;;26.85;16.63;;;;;;;;;;5012530;28;20221;-74
2023/05/22 07:49:05;;;;;;;28.02;16.75;;;;;;;;;;5012522;28;20189;-73
2023/05/22 07:51:30;;;;;;;31.13;17.05;;;;;;;;;;5014171;28;20266;-73
2023/05/22 07:53:56;;;;;;;27.35;15.90;;;;;;;;;;5010021;28;20187;-74
2023/05/22 07:56:21;;;;;;;27.95;19.42;;;;;;;;;;5012395;28;20190;-73
2023/05/22 07:58:49;;;;;;;32.10;17.30;;;;;;;;;;5008586;28;20210;-73
2023/05/22 08:01:14;;;;;;;26.30;15.77;;;;;;;;;;5012171;28;20444;-74
2023/05/22 08:03:40;;;;;;;27.90;15.90;;;;;;;;;;5011073;28;20226;-73
2023/05/22 08:06:05;;;;;;;26.00;15.25;;;;;;;;;;5016172;28;20918;-73
2023/05/22 08:08:31;;;;;;;25.02;14.38;;;;;;;;;;5009099;28;20274;-74
2023/05/22 08:10:56;;;;;;;22.80;14.50;;;;;;;;;;5012437;28;20225;-74
2023/05/22 08:13:22;;;;;;;24.20;15.37;;;;;;;;;;5010568;28;20615;-74
2023/05/22 08:15:47;;;;;;;22.58;13.80;;;;;;;;;;5011477;28;20408;-74
2023/05/22 08:18:12;;;;;;;25.10;15.10;;;;;;;;;;5010032;28;20201;-74
2023/05/22 08:20:37;;;;;;;24.55;14.57;;;;;;;;;;5009661;28;20218;-74
2023/05/22 08:23:02;;;;;;;22.67;13.73;;;;;;;;;;5012711;28;20207;-74
2023/05/22 08:25:28;;;;;;;22.52;14.15;;;;;;;;;;5018126;28;20435;-73
2023/05/22 08:27:53;;;;;;;20.97;13.70;;;;;;;;;;5016538;28;20194;-73
2023/05/22 08:30:18;;;;;;;22.53;14.03;;;;;;;;;;5018298;28;20485;-73
2023/05/22 08:32:43;;;;;;;21.17;12.83;;;;;;;;;;5011901;28;20435;-74
2023/05/22 08:35:09;;;;;;;23.67;14.50;;;;;;;;;;5010300;28;20460;-74
2023/05/22 08:37:34;;;;;;;21.65;14.32;;;;;;;;;;5010497;28;20959;-74
2023/05/22 08:40:00;;;;;;;20.23;13.65;;;;;;;;;;5009078;28;20249;-72
2023/05/22 08:42:25;;;;;;;21.70;14.18;;;;;;;;;;5009048;28;20214;-75
2023/05/22 08:44:50;;;;;;;20.70;13.20;;;;;;;;;;5013111;28;20187;-72
2023/05/22 08:47:17;;;;;;;19.27;13.13;;;;;;;;;;5015713;28;20178;-73
2023/05/22 08:49:42;;;;;;;20.77;14.15;;;;;;;;;;5014001;28;20199;-73
2023/05/22 08:52:28;;;;;;;20.80;14.50;;;;;;;;;;5014188;28;20182;-73
2023/05/22 08:54:54;;;;;;;19.77;13.20;;;;;;;;;;5011229;28;20641;-73
2023/05/22 08:57:20;;;;;;;18.88;12.50;;;;;;;;;;5013622;28;20173;-73
2023/05/22 08:59:46;;;;;;;16.27;12.93;;;;;;;;;;5016048;28;20209;-73
2023/05/22 09:02:12;;;;;;;19.17;13.60;;;;;;;;;;5013912;28;20175;-74
2023/05/22 09:04:39;;;;;;;20.13;13.32;;;;;;;;;;5015133;28;20186;-74
2023/05/22 09:07:04;;;;;;;17.10;12.88;;;;;;;;;;5014839;28;20556;-74
2023/05/22 09:09:30;;;;;;;24.83;14.17;;;;;;;;;;5014479;28;20253;-74
2023/05/22 09:11:56;;;;;;;23.20;14.40;;;;;;;;;;5014818;28;20424;-74
2023/05/22 09:14:21;;;;;;;22.52;14.82;;;;;;;;;;5011696;28;20220;-75
2023/05/22 09:16:47;;;;;;;21.13;15.10;;;;;;;;;;5014531;28;20198;-73
2023/05/22 09:19:13;;;;;;;18.08;13.82;;;;;;;;;;5014433;28;20810;-73
2023/05/22 09:21:38;;;;;;;19.10;12.95;;;;;;;;;;5014867;28;20191;-73
2023/05/22 09:24:06;;;;;;;19.17;14.33;;;;;;;;;;5011528;28;20214;-73
2023/05/22 09:26:32;;;;;;;23.73;14.00;;;;;;;;;;5007625;28;20420;-73
2023/05/22 09:29:01;;;;;;;21.73;14.88;;;;;;;;;;5012380;28;20570;-74
2023/05/22 09:31:27;;;;;;;29.13;15.40;;;;;;;;;;5012893;28;20222;-74
2023/05/22 09:33:52;;;;;;;25.05;15.15;;;;;;;;;;5012312;28;20269;-73
2023/05/22 09:36:18;;;;;;;19.23;13.80;;;;;;;;;;5013939;28;20600;-74
2023/05/22 09:38:43;;;;;;;19.10;13.65;;;;;;;;;;5010622;28;20189;-74
2023/05/22 09:41:09;;;;;;;19.33;14.18;;;;;;;;;;5015126;28;20194;-74
2023/05/22 09:43:34;;;;;;;22.50;14.23;;;;;;;;;;5016848;28;20207;-73
2023/05/22 09:46:00;;;;;;;24.40;13.90;;;;;;;;;;5016878;28;20393;-74
2023/05/22 09:48:25;;;;;;;20.45;14.25;;;;;;;;;;5015456;28;20677;-74
2023/05/22 09:50:52;;;;;;;23.48;14.50;;;;;;;;;;5016861;28;20577;-74
2023/05/22 09:53:19;;;;;;;18.40;14.23;;;;;;;;;;5014953;28;20300;-75
2023/05/22 09:55:46;;;;;;;20.80;13.82;;;;;;;;;;5015756;28;20179;-74
2023/05/22 09:58:12;;;;;;;18.88;13.57;;;;;;;;;;5011991;28;20179;-74
2023/05/22 10:00:38;;;;;;;19.88;13.80;;;;;;;;;;5014645;28;20206;-74
2023/05/22 10:03:14;;;;;;;21.33;12.85;;;;;;;;;;5012033;28;20228;-74
2023/05/22 10:05:42;;;;;;;18.92;14.05;;;;;;;;;;5010371;28;20186;-73
2023/05/22 10:08:12;;;;;;;24.00;15.02;;;;;;;;;;5015589;28;20251;-75
2023/05/22 10:10:39;;;;;;;19.45;13.55;;;;;;;;;;5013724;28;20210;-73
2023/05/22 10:13:07;;;;;;;20.52;13.80;;;;;;;;;;5012225;28;20163;-76
2023/05/22 10:15:35;;;;;;;17.25;13.13;;;;;;;;;;5013587;28;20266;-73
2023/05/22 10:18:01;;;;;;;18.45;12.32;;;;;;;;;;5014214;28;20179;-74
2023/05/22 10:20:27;;;;;;;16.40;12.77;;;;;;;;;;5011891;28;20211;-73
2023/05/22 10:22:53;;;;;;;15.68;12.88;;;;;;;;;;5012255;28;20760;-73
2023/05/22 10:25:20;;;;;;;17.30;12.70;;;;;;;;;;5008061;28;20207;-74
2023/05/22 10:27:46;;;;;;;19.92;13.10;;;;;;;;;;5011988;28;20218;-74
2023/05/22 10:30:20;;;;;;;19.85;13.35;;;;;;;;;;5013014;28;20227;-73
2023/05/22 10:32:59;;;;;;;18.30;11.98;;;;;;;;;;5009034;28;20196;-74
2023/05/22 10:35:31;;;;;;;17.13;12.65;;;;;;;;;;5012699;28;20179;-73
2023/05/22 10:38:14;;;;;;;17.52;11.20;;;;;;;;;;5013045;28;20563;-74
2023/05/22 10:40:40;;;;;;;16.08;12.00;;;;;;;;;;5011336;28;20237;-73
2023/05/22 10:43:06;;;;;;;17.48;12.15;;;;;;;;;;5006161;28;20210;-74
2023/05/22 10:45:31;;;;;;;17.70;12.05;;;;;;;;;;5013574;28;20175;-74
2023/05/22 10:48:03;;;;;;;25.20;13.50;;;;;;;;;;5011461;28;20526;-73
2023/05/22 10:50:28;;;;;;;14.50;10.43;;;;;;;;;;5011156;28;20635;-74
2023/05/22 10:53:13;;;;;;;17.10;11.43;;;;;;;;;;5013462;28;20214;-73
2023/05/22 10:55:45;;;;;;;13.35;11.10;;;;;;;;;;5010697;28;20269;-73
2023/05/22 10:58:14;;;;;;;16.80;11.43;;;;;;;;;;5011440;28;20175;-73
2023/05/22 11:00:39;;;;;;;15.68;10.07;;;;;;;;;;5014072;28;20220;-73
2023/05/22 11:03:05;;;;;;;17.67;10.88;;;;;;;;;;5010630;28;20202;-74
2023/05/22 11:05:30;;;;;;;14.93;9.13;;;;;;;;;;5012227;28;20190;-73
2023/05/22 11:08:14;;;;;;;13.32;9.48;;;;;;;;;;5011650;28;20231;-73
2023/05/22 11:10:51;;;;;;;15.50;9.63;;;;;;;;;;5012534;28;20198;-75
2023/05/22 11:13:17;;;;;;;10.18;9.02;;;;;;;;;;5010517;28;20178;-73
2023/05/22 11:15:45;;;;;;;15.37;9.30;;;;;;;;;;5012234;28;20563;-72
2023/05/22 11:18:13;;;;;;;11.82;9.60;;;;;;;;;;5011156;28;20458;-73
2023/05/22 11:20:38;;;;;;;12.05;9.25;;;;;;;;;;5010131;28;20301;-73
2023/05/22 11:23:04;;;;;;;11.63;9.25;;;;;;;;;;5012229;28;20289;-73
2023/05/22 11:25:31;;;;;;;11.75;8.82;;;;;;;;;;5015619;28;20186;-73
2023/05/22 11:27:57;;;;;;;10.05;8.05;;;;;;;;;;5011939;28;20182;-73
2023/05/22 11:30:26;;;;;;;11.35;9.15;;;;;;;;;;5002210;28;20543;-73
2023/05/22 11:32:51;;;;;;;13.18;8.20;;;;;;;;;;5009887;28;20675;-74
2023/05/22 11:35:18;;;;;;;12.18;9.23;;;;;;;;;;5008370;28;20210;-73
2023/05/22 11:37:43;;;;;;;11.82;9.10;;;;;;;;;;5012419;28;20182;-73
2023/05/22 11:40:09;;;;;;;10.75;8.07;;;;;;;;;;5005975;28;20218;-73
2023/05/22 11:42:34;;;;;;;14.50;9.27;;;;;;;;;;5008142;28;20217;-74
2023/05/22 11:45:00;;;;;;;10.05;8.85;;;;;;;;;;5008041;28;20186;-74
2023/05/22 11:47:28;;;;;;;11.05;8.60;;;;;;;;;;5009654;28;20175;-73
2023/05/22 11:49:53;;;;;;;10.32;8.07;;;;;;;;;;5007066;28;20205;-74
2023/05/22 11:52:18;;;;;;;14.43;8.63;;;;;;;;;;5008787;28;20557;-74
2023/05/22 11:54:44;;;;;;;10.93;8.15;;;;;;;;;;5003365;28;20258;-74
2023/05/22 11:57:10;;;;;;;11.07;8.38;;;;;;;;;;5008950;28;20641;-74
2023/05/22 11:59:35;;;;;;;11.73;8.20;;;;;;;;;;5013477;28;20210;-74
2023/05/22 12:02:00;;;;;;;13.15;8.75;;;;;;;;;;5007767;28;20522;-74
2023/05/22 12:04:26;;;;;;;11.38;8.45;;;;;;;;;;5019185;28;20213;-74
2023/05/22 12:06:52;;;;;;;9.85;8.10;;;;;;;;;;5004157;28;20218;-73
2023/05/22 12:09:17;;;;;;;8.40;7.50;;;;;;;;;;5001619;28;20175;-73
2023/05/22 12:11:46;;;;;;;9.10;6.80;;;;;;;;;;5009280;28;20182;-73
2023/05/22 12:14:11;;;;;;;10.70;8.20;;;;;;;;;;5013504;28;20262;-74
2023/05/22 12:16:36;;;;;;;12.77;9.02;;;;;;;;;;5013982;28;20229;-74
2023/05/22 12:19:05;;;;;;;12.05;8.23;;;;;;;;;;5010679;28;20178;-73
2023/05/22 12:21:31;;;;;;;11.93;7.30;;;;;;;;;;5015476;23;20321;-70
2023/05/22 12:23:56;;;;;;;12.75;8.07;;;;;;;;;;5004893;28;20266;-70
2023/05/22 12:26:21;;;;;;;10.83;7.87;;;;;;;;;;5003706;28;20174;-69
2023/05/22 12:28:46;;;;;;;11.90;8.80;;;;;;;;;;5007861;28;20221;-69
2023/05/22 12:31:19;;;;;;;14.48;9.30;;;;;;;;;;5008213;28;20202;-69
2023/05/22 12:33:44;;;;;;;15.85;9.75;;;;;;;;;;5002473;28;20183;-69
2023/05/22 12:36:09;;;;;;;11.37;8.40;;;;;;;;;;4996806;28;20549;-69
2023/05/22 12:38:36;;;;;;;13.35;9.50;;;;;;;;;;5003875;28;20894;-70
2023/05/22 12:41:01;;;;;;;14.65;9.93;;;;;;;;;;4998888;28;20657;-69
2023/05/22 12:43:26;;;;;;;14.23;9.50;;;;;;;;;;5008267;28;20252;-68
2023/05/22 12:45:52;;;;;;;20.60;11.75;;;;;;;;;;5000883;28;20263;-68
2023/05/22 12:48:17;;;;;;;21.23;11.00;;;;;;;;;;4998098;28;20250;-68
2023/05/22 12:50:45;;;;;;;17.13;10.88;;;;;;;;;;5003294;28;20261;-67
2023/05/22 12:53:11;;;;;;;18.15;10.45;;;;;;;;;;5000128;28;20254;-68
2023/05/22 12:55:37;;;;;;;22.75;11.35;;;;;;;;;;5005979;28;20262;-67
2023/05/22 12:58:02;;;;;;;16.63;11.15;;;;;;;;;;5005070;28;20183;-68
2023/05/22 13:00:27;;;;;;;30.48;12.20;;;;;;;;;;4997163;28;20203;-69
2023/05/22 13:02:52;;;;;;;14.50;11.43;;;;;;;;;;5007265;28;20253;-69
2023/05/22 13:05:18;;;;;;;20.43;11.67;;;;;;;;;;5003041;28;20552;-68
2023/05/22 13:07:43;;;;;;;14.30;9.87;;;;;;;;;;5006958;28;20426;-69
2023/05/22 13:10:08;;;;;;;14.55;9.77;;;;;;;;;;5007184;28;20227;-69
2023/05/22 13:12:33;;;;;;;16.25;12.50;;;;;;;;;;5003173;28;20187;-68
2023/05/22 13:14:59;;;;;;;18.70;12.63;;;;;;;;;;5004165;28;20648;-68
2023/05/22 13:17:25;;;;;;;18.52;12.55;;;;;;;;;;4999836;28;20447;-68
2023/05/22 13:19:50;;;;;;;20.85;12.70;;;;;;;;;;5007222;28;20195;-67
2023/05/22 13:22:15;;;;;;;19.27;12.52;;;;;;;;;;5001889;28;20182;-69
2023/05/22 13:24:41;;;;;;;20.83;12.82;;;;;;;;;;4999384;28;20210;-68
2023/05/22 13:27:06;;;;;;;19.70;12.20;;;;;;;;;;5006831;28;20179;-67
2023/05/22 13:29:32;;;;;;;21.33;12.27;;;;;;;;;;5008017;28;20171;-67
2023/05/22 13:31:57;;;;;;;17.00;11.52;;;;;;;;;;5004720;28;20229;-67
2023/05/22 13:34:22;;;;;;;20.57;11.57;;;;;;;;;;4994899;28;20179;-68
2023/05/22 13:36:47;;;;;;;19.60;10.43;;;;;;;;;;4996556;28;20945;-68
2023/05/22 13:39:12;;;;;;;21.67;12.67;;;;;;;;;;4999303;28;20449;-69
2023/05/22 13:41:38;;;;;;;18.83;11.30;;;;;;;;;;5003716;28;20207;-69
2023/05/22 13:44:03;;;;;;;17.40;11.03;;;;;;;;;;5004615;28;20602;-69
2023/05/22 13:46:28;;;;;;;15.17;9.30;;;;;;;;;;5003014;28;20436;-69
2023/05/22 13:48:53;;;;;;;16.47;10.17;;;;;;;;;;5007691;28;20467;-69
2023/05/22 13:51:18;;;;;;;12.13;9.23;;;;;;;;;;5001035;28;20473;-69
2023/05/22 13:53:44;;;;;;;15.43;9.67;;;;;;;;;;5003594;28;21016;-69
2023/05/22 13:56:09;;;;;;;13.05;9.18;;;;;;;;;;4997314;28;20925;-68
2023/05/22 13:58:34;;;;;;;14.13;8.73;;;;;;;;;;5003932;28;20186;-69
2023/05/22 14:00:59;;;;;;;12.68;8.38;;;;;;;;;;5006125;28;20261;-69
2023/05/22 14:03:24;;;;;;;16.90;9.13;;;;;;;;;;5010504;28;20233;-70
2023/05/22 14:05:50;;;;;;;11.98;9.45;;;;;;;;;;5008137;28;20432;-69
2023/05/22 14:08:15;;;;;;;12.50;8.80;;;;;;;;;;5009217;28;20171;-68
2023/05/22 14:10:40;;;;;;;12.57;8.80;;;;;;;;;;5011526;28;20199;-69
2023/05/22 14:13:07;;;;;;;11.45;8.55;;;;;;;;;;5001474;28;20428;-69